Time;durP1;ratioP1;P1;durP2;ratioP2;P2;SDS_P1;SDS_P2;PMS_P1;PMS_P2;Temp;Humidity;BMP_temperature;BMP_pressure;BME280_temperature;BME280_humidity;BME280_pressure;Samples;Min_cycle;Max_cycle;Signal;HPM_P1;HPM_P2
2022/10/31 00:02:00;;;;;;;35.28;19.92;;;12.00;99.90;;;;;;5098771;28;20028;-57
2022/10/31 00:04:26;;;;;;;35.60;18.50;;;11.80;99.90;;;;;;5091519;28;20411;-55
2022/10/31 00:06:52;;;;;;;35.92;20.52;;;12.40;99.90;;;;;;5090838;28;20078;-57
2022/10/31 00:09:17;;;;;;;34.28;20.67;;;12.10;99.90;;;;;;5095112;28;20024;-56
2022/10/31 00:11:43;;;;;;;32.85;20.23;;;12.10;99.90;;;;;;5073414;28;20036;-57
2022/10/31 00:14:08;;;;;;;33.25;20.73;;;12.40;99.90;;;;;;5091177;28;20036;-57
2022/10/31 00:16:34;;;;;;;37.95;20.70;;;11.70;99.90;;;;;;5090958;28;20040;-56
2022/10/31 00:19:01;;;;;;;40.08;23.15;;;;;;;;;;5090452;28;20032;-57
2022/10/31 00:21:28;;;;;;;40.10;20.80;;;12.20;99.90;;;;;;5091478;28;20040;-55
2022/10/31 00:23:53;;;;;;;34.03;20.80;;;11.80;99.90;;;;;;5070613;28;20701;-57
2022/10/31 00:26:19;;;;;;;33.63;19.90;;;12.00;99.90;;;;;;5072133;28;20070;-57
2022/10/31 00:28:45;;;;;;;36.70;21.45;;;12.10;99.90;;;;;;5090728;28;20040;-57
2022/10/31 00:31:12;;;;;;;39.95;21.80;;;12.00;99.90;;;;;;5090960;28;20059;-57
2022/10/31 00:33:39;;;;;;;32.30;19.77;;;12.10;99.90;;;;;;5090720;28;20136;-55
2022/10/31 00:36:07;;;;;;;36.72;21.73;;;12.30;99.90;;;;;;5090857;28;20043;-57
2022/10/31 00:38:33;;;;;;;36.00;22.40;;;12.20;99.90;;;;;;5090775;28;20036;-57
2022/10/31 00:40:59;;;;;;;38.58;21.85;;;12.00;99.90;;;;;;5072797;28;20047;-56
2022/10/31 00:43:24;;;;;;;35.63;20.92;;;11.50;99.90;;;;;;5091252;28;20040;-56
2022/10/31 00:45:50;;;;;;;40.00;21.67;;;12.30;99.90;;;;;;5090873;28;20477;-56
2022/10/31 00:48:15;;;;;;;38.33;22.45;;;11.50;99.90;;;;;;5090127;28;20032;-57
2022/10/31 00:50:42;;;;;;;37.83;21.13;;;12.30;99.90;;;;;;5090698;28;20417;-55
2022/10/31 00:53:08;;;;;;;40.83;21.98;;;11.90;99.90;;;;;;5072502;28;20093;-56
2022/10/31 00:55:33;;;;;;;38.05;22.00;;;11.80;99.90;;;;;;5072237;28;20040;-56
2022/10/31 00:57:59;;;;;;;39.22;23.55;;;12.10;99.90;;;;;;5089989;28;20032;-57
2022/10/31 01:00:25;;;;;;;40.05;22.67;;;11.90;99.90;;;;;;5090501;28;20067;-57
2022/10/31 01:02:51;;;;;;;41.75;23.33;;;12.00;99.90;;;;;;5089465;28;20032;-56
2022/10/31 01:05:16;;;;;;;44.85;24.58;;;12.00;99.90;;;;;;5085007;28;20039;-54
2022/10/31 01:07:42;;;;;;;36.33;22.75;;;11.60;99.90;;;;;;5140843;22;20053;-56
2022/10/31 01:10:09;;;;;;;47.05;25.02;;;12.00;99.90;;;;;;5047329;28;20037;-58
2022/10/31 01:12:40;;;;;;;41.13;22.92;;;12.10;99.90;;;;;;5047505;28;20067;-57
2022/10/31 01:15:07;;;;;;;42.95;24.52;;;11.70;99.90;;;;;;5054812;28;20155;-59
2022/10/31 01:17:33;;;;;;;40.85;23.20;;;11.90;99.90;;;;;;5057543;28;20058;-58
2022/10/31 01:19:58;;;;;;;43.08;23.85;;;11.70;99.90;;;;;;5056451;28;20033;-58
2022/10/31 01:22:24;;;;;;;42.80;23.95;;;11.80;99.90;;;;;;5032467;28;20052;-58
2022/10/31 01:24:49;;;;;;;36.38;22.67;;;12.00;99.90;;;;;;5050052;28;20064;-59
2022/10/31 01:27:15;;;;;;;43.20;23.33;;;11.40;99.90;;;;;;5049648;28;20041;-58
2022/10/31 01:29:41;;;;;;;36.22;20.45;;;11.40;99.90;;;;;;5050692;28;20033;-57
2022/10/31 01:32:06;;;;;;;44.65;23.45;;;11.20;99.90;;;;;;5062158;28;20040;-57
2022/10/31 01:34:32;;;;;;;39.17;22.35;;;;;;;;;;5051717;28;20033;-58
2022/10/31 01:36:58;;;;;;;40.50;22.15;;;11.30;99.90;;;;;;5048832;28;20083;-57
2022/10/31 01:39:24;;;;;;;38.83;22.48;;;10.90;99.90;;;;;;5049893;28;20078;-58
2022/10/31 01:41:52;;;;;;;34.13;22.75;;;11.50;99.90;;;;;;5049512;28;20099;-57
2022/10/31 01:44:17;;;;;;;36.72;22.02;;;11.20;99.90;;;;;;5056710;28;20487;-58
2022/10/31 01:46:45;;;;;;;36.35;20.83;;;11.10;99.90;;;;;;5065604;28;20039;-57
2022/10/31 01:49:18;;;;;;;42.30;24.00;;;11.10;99.90;;;;;;5069683;28;20028;-58
2022/10/31 01:51:57;;;;;;;40.20;22.43;;;11.10;99.90;;;;;;5062301;28;20024;-57
2022/10/31 01:54:28;;;;;;;36.60;21.75;;;10.70;99.90;;;;;;5065815;28;20032;-58
2022/10/31 01:56:56;;;;;;;33.35;21.30;;;10.90;99.90;;;;;;5069147;28;20127;-58
2022/10/31 01:59:24;;;;;;;32.30;19.70;;;10.90;99.90;;;;;;5069722;28;20390;-58
2022/10/31 02:01:51;;;;;;;33.15;21.80;;;10.80;99.90;;;;;;5062919;28;20393;-57
2022/10/31 02:04:18;;;;;;;32.38;19.95;;;10.70;99.90;;;;;;5071752;28;20036;-57
2022/10/31 02:06:52;;;;;;;33.30;20.40;;;;;;;;;;5073316;28;20041;-57
2022/10/31 02:09:23;;;;;;;28.67;17.97;;;11.00;99.90;;;;;;5073525;28;20102;-59
2022/10/31 02:11:54;;;;;;;28.77;20.23;;;10.70;99.90;;;;;;5073708;28;20325;-59
2022/10/31 02:14:25;;;;;;;38.03;20.20;;;10.20;99.90;;;;;;5073632;28;20393;-58
2022/10/31 02:16:51;;;;;;;28.63;20.33;;;10.60;99.90;;;;;;5072826;28;20024;-59
2022/10/31 02:19:41;;;;;;;35.80;20.55;;;10.60;99.90;;;;;;5073304;28;20458;-59
2022/10/31 02:22:18;;;;;;;35.50;21.67;;;10.20;99.90;;;;;;5042073;28;20051;-59
2022/10/31 02:25:16;;;;;;;38.83;24.17;;;10.10;99.90;;;;;;5072175;28;20044;-58
2022/10/31 02:28:03;;;;;;;36.22;23.27;;;10.30;99.90;;;;;;5072465;28;20094;-58
2022/10/31 02:30:41;;;;;;;40.22;26.10;;;10.20;99.90;;;;;;5073298;28;20098;-58
2022/10/31 02:33:23;;;;;;;42.65;25.70;;;10.50;99.90;;;;;;5059344;28;20104;-58
2022/10/31 02:36:10;;;;;;;36.92;24.08;;;10.70;99.90;;;;;;5069702;28;20041;-56
2022/10/31 02:38:52;;;;;;;42.63;25.15;;;10.40;99.90;;;;;;5064205;28;20153;-57
2022/10/31 02:41:26;;;;;;;38.15;23.48;;;10.60;99.90;;;;;;5072887;28;20033;-58
2022/10/31 02:44:24;;;;;;;42.33;25.02;;;10.30;99.90;;;;;;5072923;28;20037;-58
2022/10/31 02:46:50;;;;;;;40.97;23.95;;;;;;;;;;5002689;28;20127;-58
2022/10/31 02:49:34;;;;;;;32.72;20.98;;;10.60;99.90;;;;;;5066017;28;20048;-57
2022/10/31 02:52:00;;;;;;;40.70;23.70;;;10.40;99.90;;;;;;5068472;28;20072;-59
2022/10/31 02:54:28;;;;;;;32.38;21.35;;;10.30;99.90;;;;;;5058382;28;20119;-59
2022/10/31 02:57:07;;;;;;;42.28;24.73;;;10.30;99.90;;;;;;5053592;28;20115;-59
2022/10/31 02:59:37;;;;;;;37.70;23.33;;;10.50;99.90;;;;;;5061290;28;20390;-58
2022/10/31 03:02:17;;;;;;;44.55;26.17;;;10.00;99.90;;;;;;5072534;28;20029;-58
2022/10/31 03:05:01;;;;;;;33.20;20.58;;;10.00;99.90;;;;;;5062813;28;20398;-57
2022/10/31 03:07:42;;;;;;;34.38;22.15;;;9.90;99.90;;;;;;5071651;28;20036;-58
2022/10/31 03:10:46;;;;;;;35.67;21.88;;;9.80;99.90;;;;;;5054743;28;20279;-58
2022/10/31 03:13:30;;;;;;;35.58;23.65;;;9.90;99.90;;;;;;4985297;28;20121;-58
2022/10/31 03:16:01;;;;;;;34.07;23.73;;;9.80;99.90;;;;;;4977928;28;20042;-58
2022/10/31 03:18:32;;;;;;;38.03;23.30;;;10.10;99.90;;;;;;5037559;28;20101;-58
2022/10/31 03:21:12;;;;;;;40.03;25.02;;;9.90;99.90;;;;;;5035131;28;20044;-58
2022/10/31 03:23:39;;;;;;;43.38;26.52;;;10.00;99.90;;;;;;5062044;28;20195;-57
2022/10/31 03:26:08;;;;;;;42.10;25.83;;;10.30;99.90;;;;;;5071798;28;20498;-59
2022/10/31 03:28:39;;;;;;;41.85;26.52;;;10.20;99.90;;;;;;5071418;28;20087;-58
2022/10/31 03:31:06;;;;;;;38.58;24.75;;;10.30;99.90;;;;;;5071570;28;20486;-58
2022/10/31 03:33:35;;;;;;;42.28;26.98;;;10.40;99.90;;;;;;5071867;28;20045;-58
2022/10/31 03:36:05;;;;;;;46.80;26.50;;;10.50;99.90;;;;;;5071310;28;20079;-58
2022/10/31 03:38:33;;;;;;;54.28;29.80;;;10.20;99.90;;;;;;5071399;28;20440;-57
2022/10/31 03:41:01;;;;;;;36.13;22.58;;;10.10;99.90;;;;;;5036990;28;20068;-56
2022/10/31 03:43:32;;;;;;;37.33;24.17;;;10.00;99.90;;;;;;5071782;28;20040;-57
2022/10/31 03:45:58;;;;;;;42.28;23.63;;;;;;;;;;5063727;28;20041;-58
2022/10/31 03:48:25;;;;;;;39.60;23.92;;;10.00;99.90;;;;;;5071096;28;20435;-58
2022/10/31 03:51:10;;;;;;;42.70;23.85;;;9.70;99.90;;;;;;5062306;28;20036;-57
2022/10/31 03:53:55;;;;;;;45.92;25.77;;;10.00;99.90;;;;;;5071343;28;20052;-57
2022/10/31 03:56:31;;;;;;;40.72;24.08;;;10.30;99.90;;;;;;5042098;28;20066;-57
2022/10/31 03:59:08;;;;;;;47.70;25.70;;;9.20;99.90;;;;;;5057039;28;20033;-58
2022/10/31 04:01:39;;;;;;;47.20;26.88;;;9.20;99.90;;;;;;5071248;28;20420;-57
2022/10/31 04:04:06;;;;;;;58.78;30.95;;;9.20;99.90;;;;;;5056753;28;20039;-58
2022/10/31 04:06:35;;;;;;;37.33;21.58;;;9.70;99.90;;;;;;5071459;28;20040;-58
2022/10/31 04:09:04;;;;;;;40.15;23.98;;;9.30;99.90;;;;;;5070395;28;20064;-58
2022/10/31 04:11:34;;;;;;;45.03;26.52;;;9.70;99.90;;;;;;5052980;28;20037;-58
2022/10/31 04:14:02;;;;;;;47.35;27.35;;;9.30;99.90;;;;;;5052337;28;20397;-58
2022/10/31 04:16:28;;;;;;;50.45;27.65;;;9.30;99.90;;;;;;5072831;28;20041;-59
2022/10/31 04:18:54;;;;;;;42.20;26.00;;;10.00;99.90;;;;;;5070378;28;20081;-58
2022/10/31 04:21:27;;;;;;;47.38;26.80;;;9.40;99.90;;;;;;5071535;28;20513;-57
2022/10/31 04:23:53;;;;;;;48.47;26.60;;;;;;;;;;5071932;28;20024;-57
2022/10/31 04:26:18;;;;;;;44.97;25.65;;;9.50;99.90;;;;;;5042924;28;20094;-57
2022/10/31 04:28:44;;;;;;;47.67;26.38;;;9.50;99.90;;;;;;5060467;28;20035;-56
2022/10/31 04:31:11;;;;;;;40.58;23.67;;;9.60;99.90;;;;;;5070396;28;20513;-57
2022/10/31 04:33:38;;;;;;;56.15;30.23;;;9.30;99.90;;;;;;5052501;28;20097;-58
2022/10/31 04:36:04;;;;;;;58.50;29.08;;;9.10;99.90;;;;;;5069573;28;20048;-58
2022/10/31 04:38:30;;;;;;;52.17;26.75;;;9.10;99.90;;;;;;5070176;28;20551;-59
2022/10/31 04:40:55;;;;;;;45.08;26.40;;;9.80;99.90;;;;;;5063481;28;20037;-58
2022/10/31 04:43:21;;;;;;;56.63;29.00;;;9.40;99.90;;;;;;5028001;28;20397;-58
2022/10/31 04:45:47;;;;;;;45.78;26.33;;;9.20;99.90;;;;;;5067948;28;20046;-58
2022/10/31 04:48:12;;;;;;;52.38;27.55;;;9.40;99.90;;;;;;5064206;28;20043;-58
2022/10/31 04:50:38;;;;;;;46.88;25.25;;;9.10;99.90;;;;;;5049667;28;20131;-58
2022/10/31 04:53:04;;;;;;;44.35;25.42;;;9.40;99.90;;;;;;5066012;28;20048;-59
2022/10/31 04:55:29;;;;;;;45.40;26.23;;;9.30;99.90;;;;;;5064460;28;20087;-58
2022/10/31 04:57:55;;;;;;;40.25;25.38;;;9.10;99.90;;;;;;5060658;28;20081;-58
2022/10/31 05:00:22;;;;;;;49.72;28.05;;;9.20;99.90;;;;;;5070199;28;20521;-58
2022/10/31 05:02:53;;;;;;;48.25;28.15;;;9.50;99.90;;;;;;5070428;28;20036;-56
2022/10/31 05:05:21;;;;;;;50.55;29.17;;;9.20;99.90;;;;;;5069904;28;20070;-58
2022/10/31 05:07:48;;;;;;;50.88;29.55;;;9.40;99.90;;;;;;5066212;28;20044;-55
2022/10/31 05:10:18;;;;;;;46.95;28.90;;;9.30;99.90;;;;;;5069869;28;20040;-57
2022/10/31 05:12:54;;;;;;;49.85;31.00;;;9.20;99.90;;;;;;5069309;28;20044;-58
2022/10/31 05:15:21;;;;;;;54.75;29.85;;;9.70;99.90;;;;;;5068817;28;20378;-57
2022/10/31 05:17:48;;;;;;;55.50;30.10;;;10.00;99.90;;;;;;5069457;28;20078;-58
2022/10/31 05:20:15;;;;;;;49.90;28.77;;;9.80;99.90;;;;;;5069646;28;20032;-58
2022/10/31 05:22:48;;;;;;;53.25;30.63;;;10.10;99.90;;;;;;5069621;28;20047;-57
2022/10/31 05:25:14;;;;;;;47.78;29.67;;;9.50;99.90;;;;;;5068720;28;20627;-56
2022/10/31 05:27:41;;;;;;;54.00;31.55;;;9.90;99.90;;;;;;5050093;28;20128;-57
2022/10/31 05:30:08;;;;;;;51.50;31.27;;;9.50;99.90;;;;;;5050067;28;20041;-58
2022/10/31 05:32:41;;;;;;;50.40;29.98;;;9.60;99.90;;;;;;5049484;28;20033;-57
2022/10/31 05:35:09;;;;;;;49.15;30.90;;;9.70;99.90;;;;;;5049883;28;20053;-57
2022/10/31 05:37:38;;;;;;;51.22;32.50;;;9.50;99.90;;;;;;5065377;28;20072;-58
2022/10/31 05:40:05;;;;;;;52.47;29.65;;;8.90;99.90;;;;;;5073411;28;20490;-57
2022/10/31 05:42:30;;;;;;;58.38;33.10;;;9.70;99.90;;;;;;5052452;28;20048;-58
2022/10/31 05:44:56;;;;;;;52.33;32.13;;;9.80;99.90;;;;;;5059597;28;20609;-57
2022/10/31 05:47:22;;;;;;;54.70;32.85;;;9.50;99.90;;;;;;5056519;28;20047;-59
2022/10/31 05:49:47;;;;;;;54.78;32.58;;;9.90;99.90;;;;;;5053843;28;20041;-59
2022/10/31 05:52:13;;;;;;;62.00;34.95;;;9.80;99.90;;;;;;5034887;28;20119;-58
2022/10/31 05:54:39;;;;;;;60.03;35.65;;;10.00;99.90;;;;;;5062824;28;20067;-56
2022/10/31 05:57:04;;;;;;;60.70;33.85;;;9.80;99.90;;;;;;5056277;28;20029;-59
2022/10/31 05:59:30;;;;;;;65.10;35.25;;;9.70;99.90;;;;;;5037876;28;20393;-58
2022/10/31 06:01:56;;;;;;;62.95;33.83;;;9.50;99.90;;;;;;5056141;28;20037;-58
2022/10/31 06:04:21;;;;;;;55.55;32.83;;;9.30;99.90;;;;;;5056055;28;20112;-58
2022/10/31 06:06:47;;;;;;;73.20;38.55;;;9.50;99.90;;;;;;5046636;28;20032;-57
2022/10/31 06:09:13;;;;;;;52.15;32.38;;;9.00;99.90;;;;;;5052126;28;20479;-59
2022/10/31 06:11:38;;;;;;;74.68;37.60;;;9.30;99.90;;;;;;5067089;28;20071;-58
2022/10/31 06:14:05;;;;;;;84.00;38.00;;;8.90;99.90;;;;;;5054162;28;20486;-58
2022/10/31 06:16:30;;;;;;;85.30;37.58;;;8.90;99.90;;;;;;5053166;28;20095;-57
2022/10/31 06:18:56;;;;;;;65.00;34.03;;;;;;;;;;5059353;28;20033;-58
2022/10/31 06:21:22;;;;;;;73.40;34.13;;;8.60;99.90;;;;;;5052473;28;20043;-58
2022/10/31 06:23:48;;;;;;;52.35;30.92;;;8.80;99.90;;;;;;5055428;28;20040;-58
2022/10/31 06:26:14;;;;;;;62.40;34.63;;;9.30;99.90;;;;;;5052513;28;20498;-57
2022/10/31 06:28:39;;;;;;;66.53;34.10;;;9.10;99.90;;;;;;5050409;28;20045;-57
2022/10/31 06:31:05;;;;;;;49.05;27.92;;;8.60;99.90;;;;;;5060327;28;20043;-57
2022/10/31 06:33:30;;;;;;;65.43;32.88;;;8.70;99.90;;;;;;5057980;28;20090;-57
2022/10/31 06:35:56;;;;;;;67.43;33.20;;;8.30;99.90;;;;;;5054941;28;20033;-55
2022/10/31 06:38:22;;;;;;;92.57;39.50;;;8.80;99.90;;;;;;5053494;28;20029;-58
2022/10/31 06:40:48;;;;;;;125.45;46.90;;;8.80;99.90;;;;;;5052578;28;20045;-57
2022/10/31 06:43:14;;;;;;;87.50;30.83;;;8.90;99.90;;;;;;5050689;28;20124;-56
2022/10/31 06:45:40;;;;;;;143.85;47.10;;;8.70;99.90;;;;;;5052641;28;20128;-57
2022/10/31 06:48:06;;;;;;;111.07;38.65;;;8.60;99.90;;;;;;5059713;28;20040;-57
2022/10/31 06:50:32;;;;;;;280.48;56.53;;;;;;;;;;5052366;28;20048;-58
2022/10/31 06:52:59;;;;;;;190.07;52.90;;;8.20;99.90;;;;;;5052386;28;20037;-59
2022/10/31 06:55:26;;;;;;;92.70;37.38;;;8.50;99.90;;;;;;5051020;28;20053;-57
2022/10/31 06:57:53;;;;;;;68.65;35.70;;;8.60;99.90;;;;;;5063250;28;20343;-58
2022/10/31 07:00:19;;;;;;;96.05;41.63;;;9.20;99.90;;;;;;5072036;28;20028;-59
2022/10/31 07:02:56;;;;;;;65.22;33.05;;;8.50;99.90;;;;;;5072556;28;20086;-59
2022/10/31 07:05:22;;;;;;;74.75;38.95;;;8.50;99.90;;;;;;5045180;28;20565;-58
2022/10/31 07:07:55;;;;;;;61.38;32.50;;;8.60;99.90;;;;;;5127741;22;20215;-56
2022/10/31 07:10:21;;;;;;;116.97;44.88;;;8.60;99.90;;;;;;5072009;28;20490;-55
2022/10/31 07:12:47;;;;;;;56.90;33.13;;;8.60;99.90;;;;;;5072224;28;20104;-55
2022/10/31 07:15:13;;;;;;;66.65;36.50;;;8.50;99.90;;;;;;5068287;28;20141;-57
2022/10/31 07:17:38;;;;;;;65.55;35.95;;;8.50;99.90;;;;;;5051496;28;20037;-55
2022/10/31 07:20:05;;;;;;;62.10;32.72;;;8.20;99.90;;;;;;5035637;28;20083;-56
2022/10/31 07:22:36;;;;;;;80.72;39.47;;;8.50;99.90;;;;;;5051965;28;20037;-55
2022/10/31 07:25:04;;;;;;;44.50;27.50;;;8.70;99.90;;;;;;5050868;28;20557;-53
2022/10/31 07:27:36;;;;;;;77.72;41.33;;;8.40;99.90;;;;;;5051510;28;20237;-54
2022/10/31 07:30:05;;;;;;;68.72;35.90;;;8.90;99.90;;;;;;5052069;28;20053;-54
2022/10/31 07:32:41;;;;;;;50.85;33.90;;;8.80;99.90;;;;;;5051766;28;20089;-57
2022/10/31 07:35:12;;;;;;;71.28;37.63;;;9.10;99.90;;;;;;5051899;28;20040;-56
2022/10/31 07:37:38;;;;;;;81.57;41.78;;;9.20;99.90;;;;;;5051339;28;20041;-57
2022/10/31 07:40:06;;;;;;;82.53;39.50;;;9.00;99.90;;;;;;5032869;28;20044;-56
2022/10/31 07:42:42;;;;;;;105.18;46.78;;;8.90;99.90;;;;;;5051295;28;20573;-57
2022/10/31 07:45:14;;;;;;;78.15;38.53;;;8.80;99.90;;;;;;5032700;28;20041;-56
2022/10/31 07:47:45;;;;;;;73.88;39.35;;;9.00;99.90;;;;;;5051346;28;20041;-57
2022/10/31 07:50:14;;;;;;;52.45;32.10;;;9.10;99.90;;;;;;5058041;28;20037;-57
2022/10/31 07:52:40;;;;;;;71.95;37.15;;;9.00;99.90;;;;;;5053111;28;20582;-57
2022/10/31 07:55:06;;;;;;;52.53;30.67;;;9.10;99.90;;;;;;5051096;28;20168;-57
2022/10/31 07:57:32;;;;;;;76.30;40.08;;;8.90;99.90;;;;;;5051245;28;20041;-57
2022/10/31 07:59:58;;;;;;;65.28;36.22;;;9.20;99.90;;;;;;5050568;28;20440;-57
2022/10/31 08:02:25;;;;;;;74.50;40.42;;;9.30;99.90;;;;;;5060539;28;20119;-56
2022/10/31 08:04:51;;;;;;;73.75;40.63;;;9.60;99.90;;;;;;5051272;28;20037;-56
2022/10/31 08:07:17;;;;;;;55.15;33.45;;;;;;;;;;5050011;28;20052;-57
2022/10/31 08:09:43;;;;;;;60.47;34.33;;;9.10;99.90;;;;;;5050934;28;20048;-57
2022/10/31 08:12:08;;;;;;;59.00;34.17;;;9.20;99.90;;;;;;5051368;28;20032;-57
2022/10/31 08:14:34;;;;;;;51.15;31.65;;;;;;;;;;5051254;28;20036;-57
2022/10/31 08:17:00;;;;;;;52.47;32.13;;;9.50;99.90;;;;;;5032701;28;20048;-56
2022/10/31 08:19:25;;;;;;;54.67;35.08;;;10.10;99.90;;;;;;5051236;28;20126;-57
2022/10/31 08:21:52;;;;;;;57.17;33.47;;;9.50;99.90;;;;;;5050966;28;20039;-57
2022/10/31 08:24:21;;;;;;;56.88;32.88;;;9.50;99.90;;;;;;5032764;28;20043;-57
2022/10/31 08:26:47;;;;;;;51.17;31.02;;;9.90;99.90;;;;;;5050908;28;20091;-55
2022/10/31 08:29:14;;;;;;;60.35;34.47;;;10.20;99.90;;;;;;5050566;28;20033;-57
2022/10/31 08:31:43;;;;;;;57.05;33.03;;;;;;;;;;5050726;28;20494;-57
2022/10/31 08:34:09;;;;;;;57.75;33.35;;;10.40;99.90;;;;;;5050552;28;20036;-57
2022/10/31 08:36:34;;;;;;;59.60;35.45;;;10.60;99.90;;;;;;5050370;28;20041;-57
2022/10/31 08:39:00;;;;;;;41.78;28.73;;;10.30;99.90;;;;;;5050229;28;20409;-55
2022/10/31 08:41:26;;;;;;;50.72;32.20;;;10.60;99.90;;;;;;5033022;28;20526;-57
2022/10/31 08:43:51;;;;;;;53.47;34.03;;;10.80;99.90;;;;;;5050715;28;20064;-57
2022/10/31 08:46:17;;;;;;;40.35;25.23;;;10.70;99.90;;;;;;5050262;28;20095;-57
2022/10/31 08:48:43;;;;;;;50.17;29.58;;;10.30;99.90;;;;;;5049889;28;20037;-56
2022/10/31 08:51:10;;;;;;;51.67;30.48;;;11.00;99.90;;;;;;5050264;28;20051;-56
2022/10/31 08:53:35;;;;;;;52.75;30.95;;;10.60;99.90;;;;;;5050842;28;20049;-57
2022/10/31 08:56:01;;;;;;;48.47;29.42;;;10.80;99.90;;;;;;5050244;28;20410;-56
2022/10/31 08:58:30;;;;;;;44.67;27.90;;;11.00;99.90;;;;;;5049936;28;20093;-57
2022/10/31 09:00:56;;;;;;;56.45;34.30;;;11.10;99.90;;;;;;5050304;28;20035;-56
2022/10/31 09:03:24;;;;;;;57.33;35.53;;;10.70;99.90;;;;;;5050231;28;20407;-56
2022/10/31 09:05:54;;;;;;;40.03;26.35;;;11.30;99.90;;;;;;5049992;28;20065;-57
2022/10/31 09:08:20;;;;;;;37.95;25.20;;;11.60;99.90;;;;;;5052259;28;20056;-57
2022/10/31 09:10:46;;;;;;;36.13;24.40;;;11.20;99.90;;;;;;5052779;28;20036;-57
2022/10/31 09:13:14;;;;;;;36.00;24.02;;;11.60;99.90;;;;;;5058402;28;20037;-57
2022/10/31 09:15:47;;;;;;;39.83;25.65;;;11.80;99.90;;;;;;5049959;28;20032;-57
2022/10/31 09:18:18;;;;;;;41.30;25.23;;;11.60;99.90;;;;;;5049695;28;20036;-56
2022/10/31 09:20:45;;;;;;;47.65;27.42;;;11.60;99.90;;;;;;5043725;28;20056;-57
2022/10/31 09:23:20;;;;;;;31.55;22.10;;;12.00;99.90;;;;;;5062078;28;20110;-57
2022/10/31 09:25:47;;;;;;;31.55;21.23;;;12.30;99.90;;;;;;5055803;28;20064;-57
2022/10/31 09:28:16;;;;;;;33.30;22.05;;;11.90;99.90;;;;;;5042784;28;20204;-57
2022/10/31 09:30:41;;;;;;;29.30;20.15;;;12.30;99.90;;;;;;5050503;28;20052;-57
2022/10/31 09:33:11;;;;;;;29.23;20.05;;;12.40;99.90;;;;;;5055342;28;20058;-57
2022/10/31 09:35:37;;;;;;;27.77;20.60;;;12.50;99.90;;;;;;5056023;28;20037;-57
2022/10/31 09:38:16;;;;;;;28.85;20.35;;;12.10;99.90;;;;;;5049277;28;20479;-57
2022/10/31 09:40:49;;;;;;;34.33;21.38;;;12.30;99.90;;;;;;5050017;28;20048;-57
2022/10/31 09:43:39;;;;;;;33.33;21.23;;;12.50;99.90;;;;;;5044625;28;20056;-57
2022/10/31 09:46:12;;;;;;;29.48;19.27;;;12.90;99.90;;;;;;5049947;28;20065;-57
2022/10/31 09:49:15;;;;;;;27.00;18.10;;;12.60;99.90;;;;;;5015261;28;20414;-57
2022/10/31 09:51:45;;;;;;;33.28;19.52;;;12.80;99.90;;;;;;5047955;28;20033;-54
2022/10/31 09:54:16;;;;;;;30.13;20.25;;;12.70;99.90;;;;;;5055903;28;20036;-57
2022/10/31 09:56:43;;;;;;;26.35;19.30;;;13.10;99.90;;;;;;5050173;28;20276;-57
2022/10/31 09:59:27;;;;;;;26.40;18.30;;;12.90;99.90;;;;;;5047322;28;20541;-57
2022/10/31 10:02:02;;;;;;;28.20;18.95;;;13.10;99.90;;;;;;5049794;28;20037;-57
2022/10/31 10:04:49;;;;;;;23.48;16.30;;;12.90;99.90;;;;;;5032294;28;20409;-55
2022/10/31 10:07:39;;;;;;;30.90;21.02;;;13.20;99.90;;;;;;5031172;28;20041;-56
2022/10/31 10:10:29;;;;;;;30.13;19.45;;;12.90;99.90;;;;;;5025663;28;20087;-56
2022/10/31 10:13:05;;;;;;;26.25;18.05;;;12.50;99.90;;;;;;5045185;28;20041;-57
2022/10/31 10:15:50;;;;;;;22.95;16.27;;;12.90;99.90;;;;;;5029785;28;20036;-57
2022/10/31 10:18:52;;;;;;;27.40;17.17;;;13.20;99.90;;;;;;5049176;28;20110;-56
2022/10/31 10:21:33;;;;;;;26.20;16.83;;;13.40;99.90;;;;;;5051267;28;20505;-58
2022/10/31 10:24:12;;;;;;;26.10;17.52;;;13.40;99.90;;;;;;5035737;28;20459;-56
2022/10/31 10:26:43;;;;;;;21.70;16.23;;;13.50;99.90;;;;;;5053195;28;20530;-57
2022/10/31 10:29:22;;;;;;;24.38;16.08;;;13.70;99.90;;;;;;5052641;28;20115;-57
2022/10/31 10:31:49;;;;;;;24.73;16.25;;;14.00;99.90;;;;;;5053144;28;21508;-57
2022/10/31 10:34:25;;;;;;;20.77;15.35;;;14.30;99.90;;;;;;5053156;28;20065;-57
2022/10/31 10:36:58;;;;;;;20.90;15.82;;;14.30;99.90;;;;;;5051595;28;20037;-57
2022/10/31 10:39:28;;;;;;;20.48;14.45;;;;;;;;;;5053078;28;20128;-57
2022/10/31 10:47:41;;;;;;;17.88;12.55;;;13.90;99.90;;;;;;5052454;28;20053;-57
2022/10/31 10:50:20;;;;;;;19.60;12.48;;;14.00;99.90;;;;;;5053069;28;20033;-57
2022/10/31 10:53:31;;;;;;;14.70;11.07;;;14.60;99.90;;;;;;5052881;28;20140;-56
2022/10/31 10:56:11;;;;;;;13.98;10.23;;;14.20;99.90;;;;;;5052678;28;20048;-57
2022/10/31 10:58:39;;;;;;;16.60;11.48;;;14.20;99.90;;;;;;5018093;28;20033;-58
2022/10/31 11:01:10;;;;;;;19.05;11.38;;;;;;;;;;5035059;28;20033;-57
2022/10/31 11:03:36;;;;;;;16.92;10.82;;;14.40;99.90;;;;;;5044908;28;20119;-57
2022/10/31 11:06:01;;;;;;;15.45;10.13;;;14.50;99.90;;;;;;5042088;28;20180;-57
2022/10/31 11:08:35;;;;;;;16.10;10.95;;;14.40;99.90;;;;;;5054713;28;20048;-57
2022/10/31 11:11:25;;;;;;;14.30;8.82;;;14.80;99.90;;;;;;5051357;28;20490;-56
2022/10/31 11:14:13;;;;;;;14.63;7.85;;;;;;;;;;5045257;28;20064;-55
2022/10/31 11:16:42;;;;;;;15.02;8.55;;;14.80;99.90;;;;;;5067393;28;20047;-57
2022/10/31 11:19:19;;;;;;;13.18;7.57;;;;;;;;;;5059458;28;20455;-56
2022/10/31 11:21:46;;;;;;;13.23;7.82;;;14.50;99.90;;;;;;5055024;28;20549;-56
2022/10/31 11:24:11;;;;;;;11.30;7.30;;;15.20;99.90;;;;;;5064435;28;20033;-57
2022/10/31 11:26:44;;;;;;;12.25;7.53;;;14.70;99.90;;;;;;5052057;28;20044;-56
2022/10/31 11:29:30;;;;;;;12.93;7.05;;;14.60;99.90;;;;;;5051777;28;20487;-56
2022/10/31 11:31:59;;;;;;;12.43;8.15;;;14.70;99.90;;;;;;5043983;28;20421;-56
2022/10/31 11:34:33;;;;;;;11.88;7.80;;;;;;;;;;5051574;28;20048;-56
2022/10/31 11:37:15;;;;;;;13.35;8.82;;;15.20;99.90;;;;;;5050551;28;20581;-54
2022/10/31 11:39:44;;;;;;;15.88;9.65;;;14.90;99.90;;;;;;5037990;28;20245;-56
2022/10/31 11:42:10;;;;;;;12.38;8.40;;;15.30;99.90;;;;;;5057715;28;20056;-55
2022/10/31 11:44:36;;;;;;;15.15;9.52;;;15.40;99.90;;;;;;5053896;28;20483;-56
2022/10/31 11:47:25;;;;;;;13.35;8.60;;;17.00;99.90;;;;;;5051656;28;20033;-55
2022/10/31 11:49:50;;;;;;;12.80;8.20;;;16.70;99.90;;;;;;5051584;28;20029;-57
2022/10/31 11:52:23;;;;;;;13.15;7.80;;;16.70;99.90;;;;;;5051844;28;20082;-57
2022/10/31 11:55:12;;;;;;;12.40;7.75;;;16.60;99.90;;;;;;5050190;28;20128;-56
2022/10/31 11:57:45;;;;;;;10.57;7.15;;;16.80;99.90;;;;;;5051169;28;20121;-56
2022/10/31 12:00:26;;;;;;;14.07;7.88;;;16.90;99.90;;;;;;5064079;28;20074;-57
2022/10/31 12:03:04;;;;;;;12.88;7.75;;;;;;;;;;5051411;28;20119;-57
2022/10/31 12:05:32;;;;;;;12.68;8.30;;;16.90;63.60;;;;;;5051591;28;20098;-57
2022/10/31 12:07:59;;;;;;;12.13;8.00;;;17.10;99.30;;;;;;5054928;28;20165;-58
2022/10/31 12:10:37;;;;;;;16.15;9.57;;;17.30;99.90;;;;;;5050862;28;20090;-57
2022/10/31 12:13:30;;;;;;;14.68;9.43;;;17.60;99.90;;;;;;5050603;28;20554;-58
2022/10/31 12:16:21;;;;;;;17.20;10.25;;;17.90;99.90;;;;;;5050270;28;20059;-57
2022/10/31 12:19:10;;;;;;;16.40;9.82;;;18.90;94.80;;;;;;5048829;28;20049;-58
2022/10/31 12:21:53;;;;;;;15.00;9.13;;;18.60;48.50;;;;;;5032768;28;20494;-57
2022/10/31 12:24:37;;;;;;;15.05;9.25;;;18.70;64.80;;;;;;5050310;28;20037;-58
2022/10/31 12:27:44;;;;;;;15.98;9.23;;;19.90;1.00;;;;;;5049839;28;20040;-58
2022/10/31 12:30:19;;;;;;;14.43;8.45;;;21.00;1.00;;;;;;5038721;28;20053;-56
2022/10/31 12:32:48;;;;;;;14.43;8.60;;;22.50;1.00;;;;;;5050053;28;20116;-58
2022/10/31 12:35:21;;;;;;;13.18;9.35;;;22.90;1.00;;;;;;5056332;28;20052;-57
2022/10/31 12:38:10;;;;;;;15.77;8.32;;;23.20;1.00;;;;;;5034208;28;20505;-58
2022/10/31 12:41:19;;;;;;;15.77;7.80;;;22.90;1.00;;;;;;5029137;28;20049;-57
2022/10/31 12:44:11;;;;;;;11.32;7.57;;;22.80;1.00;;;;;;5048892;28;20091;-57
2022/10/31 12:47:05;;;;;;;12.20;7.15;;;23.00;1.00;;;;;;5057855;28;20407;-58
2022/10/31 12:49:49;;;;;;;12.85;7.93;;;23.10;1.00;;;;;;5049684;28;20041;-57
2022/10/31 12:52:45;;;;;;;11.30;6.60;;;23.70;1.00;;;;;;5049352;28;20052;-58
2022/10/31 12:55:48;;;;;;;11.38;7.45;;;24.20;1.00;;;;;;5043620;28;20479;-58
2022/10/31 12:58:23;;;;;;;13.35;7.25;;;25.90;1.00;;;;;;4971423;28;20037;-58
2022/10/31 13:00:57;;;;;;;12.60;6.60;;;25.90;1.00;;;;;;5049147;28;20033;-58
2022/10/31 13:03:55;;;;;;;10.75;6.32;;;26.40;1.00;;;;;;5048965;28;20040;-58
2022/10/31 13:06:30;;;;;;;8.55;5.35;;;27.00;99.90;;;;;;5049367;28;20072;-58